createdAt,value
2018-08-06T00:01:48.519Z,98727.28
2018-08-06T00:04:16.662Z,98717.65
2018-08-06T00:06:44.846Z,98719.87
2018-08-06T00:09:13.251Z,98728.50
2018-08-06T00:11:41.750Z,98726.59
2018-08-06T00:14:09.856Z,98721.20
2018-08-06T00:16:38.001Z,98723.14
2018-08-06T00:19:06.352Z,98716.00
2018-08-06T00:21:34.586Z,98725.94
2018-08-06T00:24:02.721Z,98724.91
2018-08-06T00:26:30.823Z,98723.04
2018-08-06T00:28:58.976Z,98717.70
2018-08-06T00:31:27.124Z,98715.56
2018-08-06T00:33:55.419Z,98717.98
2018-08-06T00:36:23.615Z,98720.72
2018-08-06T00:38:51.722Z,98714.53
2018-08-06T00:41:19.878Z,98710.84
2018-08-06T00:43:48.112Z,98710.88
2018-08-06T00:46:16.210Z,98702.86
2018-08-06T00:48:44.519Z,98708.80
2018-08-06T00:51:12.855Z,98713.09
2018-08-06T00:53:41.070Z,98709.61
2018-08-06T00:56:09.472Z,98707.72
2018-08-06T00:58:37.811Z,98710.70
2018-08-06T01:01:06.169Z,98714.23
2018-08-06T01:03:34.277Z,98707.30
2018-08-06T01:06:02.522Z,98698.48
2018-08-06T01:08:30.972Z,98701.17
2018-08-06T01:10:59.290Z,98705.20
2018-08-06T01:13:27.405Z,98704.41
2018-08-06T01:15:55.529Z,98704.44
2018-08-06T01:18:23.739Z,98705.22
2018-08-06T01:20:52.378Z,98702.59
2018-08-06T01:23:20.469Z,98702.30
2018-08-06T01:25:48.881Z,98701.55
2018-08-06T01:28:17.021Z,98698.88
2018-08-06T01:30:45.125Z,98692.98
2018-08-06T01:33:13.836Z,98691.12
2018-08-06T01:35:42.027Z,98687.39
2018-08-06T01:38:10.563Z,98692.98
2018-08-06T01:40:38.750Z,98690.33
2018-08-06T01:43:06.928Z,98686.61
2018-08-06T01:45:35.257Z,98684.48
2018-08-06T01:48:03.580Z,98686.12
2018-08-06T01:50:31.714Z,98686.67
2018-08-06T01:52:59.895Z,98681.32
2018-08-06T01:55:28.037Z,98675.19
2018-08-06T01:57:56.195Z,98668.77
2018-08-06T02:00:24.512Z,98667.19
2018-08-06T02:02:52.649Z,98667.22
2018-08-06T02:05:20.751Z,98671.52
2018-08-06T02:07:48.893Z,98670.73
2018-08-06T02:10:17.276Z,98667.27
2018-08-06T02:12:45.681Z,98663.80
2018-08-06T02:15:14.055Z,98659.00
2018-08-06T02:17:42.263Z,98665.14
2018-08-06T02:20:15.175Z,98667.84
2018-08-06T02:22:44.151Z,98666.48
2018-08-06T02:25:12.290Z,98656.36
2018-08-06T02:27:40.838Z,98658.22
2018-08-06T02:30:11.115Z,98660.12
2018-08-06T02:32:39.578Z,98658.51
2018-08-06T02:35:08.747Z,98661.44
2018-08-06T02:37:36.916Z,98656.34
2018-08-06T02:40:06.522Z,98661.47
2018-08-06T02:42:34.684Z,98650.82
2018-08-06T02:45:03.132Z,98645.98
2018-08-06T02:47:31.257Z,98644.63
2018-08-06T02:49:59.426Z,98644.14
2018-08-06T02:52:27.697Z,98643.64
2018-08-06T02:54:55.844Z,98643.09
2018-08-06T02:57:23.963Z,98644.45
2018-08-06T02:59:52.389Z,98636.45
2018-08-06T03:02:20.733Z,98640.46
2018-08-06T03:04:48.995Z,98638.05
2018-08-06T03:07:17.190Z,98644.48
2018-08-06T03:09:46.022Z,98641.03
2018-08-06T03:12:14.180Z,98648.50
2018-08-06T03:14:42.297Z,98638.36
2018-08-06T03:17:10.454Z,98642.11
2018-08-06T03:19:38.590Z,98636.77
2018-08-06T03:22:07.208Z,98634.66
2018-08-06T03:24:35.313Z,98635.67
2018-08-06T03:27:03.607Z,98631.42
2018-08-06T03:29:32.260Z,98626.38
2018-08-06T03:32:00.354Z,98628.75
2018-08-06T03:34:28.709Z,98632.48
2018-08-06T03:36:57.133Z,98636.77
2018-08-06T03:39:25.223Z,98638.90
2018-08-06T03:41:53.359Z,98638.11
2018-08-06T03:44:21.511Z,98641.30
2018-08-06T03:46:49.717Z,98639.98
2018-08-06T03:49:17.959Z,98642.92
2018-08-06T03:51:46.165Z,98644.80
2018-08-06T03:54:14.486Z,98645.59
2018-08-06T03:56:42.580Z,98643.75
2018-08-06T03:59:11.203Z,98644.80
2018-08-06T04:01:39.560Z,98644.80
2018-08-06T04:04:07.819Z,98656.00
2018-08-06T04:06:36.000Z,98652.81
2018-08-06T04:09:05.745Z,98658.15
2018-08-06T04:11:34.107Z,98658.69
2018-08-06T04:14:02.290Z,98656.81
2018-08-06T04:16:34.598Z,98659.20
2018-08-06T04:19:02.831Z,98663.48
2018-08-06T04:21:31.019Z,98662.95
2018-08-06T04:23:59.301Z,98660.54
2018-08-06T04:26:27.676Z,98662.14
2018-08-06T04:28:55.962Z,98662.42
2018-08-06T04:31:24.221Z,98656.81
2018-08-06T04:33:52.411Z,98668.02
2018-08-06T04:36:20.519Z,98668.82
2018-08-06T04:38:48.806Z,98667.21
2018-08-06T04:41:16.931Z,98672.29
2018-08-06T04:43:45.032Z,98666.92
2018-08-06T04:46:13.131Z,98670.95
2018-08-06T04:48:41.231Z,98669.35
2018-08-06T04:51:09.423Z,98671.77
2018-08-06T04:53:37.634Z,98673.63
2018-08-06T04:56:05.798Z,98670.14
2018-08-06T04:58:34.023Z,98670.67
2018-08-06T05:01:02.530Z,98672.01
2018-08-06T05:03:30.687Z,98671.76
2018-08-06T05:05:58.797Z,98669.08
2018-08-06T05:08:26.975Z,98667.75
2018-08-06T05:10:55.127Z,98670.70
2018-08-06T05:13:23.275Z,98676.81
2018-08-06T05:15:51.640Z,98677.09
2018-08-06T05:18:20.368Z,98680.55
2018-08-06T05:20:48.562Z,98681.89
2018-08-06T05:23:16.676Z,98682.14
2018-08-06T05:25:44.796Z,98678.14
2018-08-06T05:28:12.940Z,98673.09
2018-08-06T05:30:41.231Z,98676.02
2018-08-06T05:33:09.311Z,98678.41
2018-08-06T05:35:38.486Z,98679.19
2018-08-06T05:38:06.642Z,98677.80
2018-08-06T05:40:34.911Z,98676.70
2018-08-06T05:43:04.580Z,98674.82
2018-08-06T05:45:32.887Z,98680.97
2018-08-06T05:48:01.059Z,98679.11
2018-08-06T05:50:29.219Z,98679.88
2018-08-06T05:52:57.426Z,98681.48
2018-08-06T05:55:25.549Z,98685.74
2018-08-06T05:57:54.016Z,98686.83
2018-08-06T06:00:22.283Z,98695.91
2018-08-06T06:02:50.417Z,98690.53
2018-08-06T06:05:18.839Z,98682.01
2018-08-06T06:07:47.120Z,98690.53
2018-08-06T06:10:15.822Z,98691.57
2018-08-06T06:12:44.074Z,98683.00
2018-08-06T06:15:14.146Z,98687.80
2018-08-06T06:17:43.069Z,98688.85
2018-08-06T06:20:11.206Z,98686.41
2018-08-06T06:22:39.365Z,98690.68
2018-08-06T06:25:09.700Z,98687.46
2018-08-06T06:27:38.042Z,98693.85
2018-08-06T06:30:07.614Z,98691.41
2018-08-06T06:32:36.275Z,98688.72
2018-08-06T06:35:04.668Z,98690.02
2018-08-06T06:37:32.815Z,98688.66
2018-08-06T06:40:04.614Z,98688.36
2018-08-06T06:42:32.818Z,98682.15
2018-08-06T06:45:01.176Z,98679.77
2018-08-06T06:47:29.456Z,98678.12
2018-08-06T06:49:57.875Z,98672.74
2018-08-06T06:52:26.148Z,98675.39
2018-08-06T06:54:54.651Z,98672.97
2018-08-06T06:57:22.806Z,98670.80
2018-08-06T06:59:51.234Z,98674.22
2018-08-06T07:02:19.358Z,98672.33
2018-08-06T07:04:47.575Z,98664.80
2018-08-06T07:07:15.960Z,98664.48
2018-08-06T07:09:44.075Z,98659.63
2018-08-06T07:12:12.252Z,98662.53
2018-08-06T07:14:40.535Z,98655.77
2018-08-06T07:17:08.662Z,98659.19
2018-08-06T07:19:36.835Z,98656.80
2018-08-06T07:22:06.267Z,98659.16
2018-08-06T07:24:34.730Z,98659.94
2018-08-06T07:27:03.084Z,98653.73
2018-08-06T07:29:31.264Z,98657.46
2018-08-06T07:32:00.284Z,98654.22
2018-08-06T07:34:28.423Z,98652.84
2018-08-06T07:36:57.259Z,98653.33
2018-08-06T07:39:25.788Z,98655.45
2018-08-06T07:41:53.890Z,98651.35
2018-08-06T07:44:22.252Z,98643.56
2018-08-06T07:46:50.375Z,98648.88
2018-08-06T07:49:18.618Z,98646.13
2018-08-06T07:51:46.793Z,98643.72
2018-08-06T07:54:14.912Z,98643.40
2018-08-06T07:56:43.557Z,98642.83
2018-08-06T07:59:11.778Z,98636.61
2018-08-06T08:01:40.200Z,98639.25
2018-08-06T08:04:08.816Z,98644.05
2018-08-06T08:06:37.007Z,98638.35
2018-08-06T08:09:08.005Z,98644.20
2018-08-06T08:11:36.255Z,98638.02
2018-08-06T08:14:04.523Z,98639.34
2018-08-06T08:16:32.638Z,98635.81
2018-08-06T08:19:00.987Z,98636.86
2018-08-06T08:21:29.240Z,98631.49
2018-08-06T08:23:57.475Z,98636.53
2018-08-06T08:26:25.937Z,98632.99
2018-08-06T08:28:54.171Z,98636.20
2018-08-06T08:31:22.395Z,98632.94
2018-08-06T08:33:50.697Z,98633.46
2018-08-06T08:36:18.801Z,98631.27
2018-08-06T08:38:46.920Z,98631.79
2018-08-06T08:41:15.063Z,98627.67
2018-08-06T08:43:43.392Z,98624.45
2018-08-06T08:46:11.582Z,98625.22
2018-08-06T08:48:39.851Z,98625.12
2018-08-06T08:51:07.968Z,98619.75
2018-08-06T08:53:36.175Z,98616.73
2018-08-06T08:56:04.306Z,98619.41
2018-08-06T08:58:32.868Z,98612.41
2018-08-06T09:01:00.927Z,98609.92
2018-08-06T09:03:30.774Z,98611.49
2018-08-06T09:05:59.016Z,98609.34
2018-08-06T09:08:27.168Z,98602.91
2018-08-06T09:10:55.285Z,98602.81
2018-08-06T09:13:23.811Z,98597.95
2018-08-06T09:15:51.931Z,98602.47
2018-08-06T09:18:20.530Z,98597.38
2018-08-06T09:20:48.706Z,98598.70
2018-08-06T09:23:16.922Z,98600.80
2018-08-06T09:25:45.048Z,98596.96
2018-08-06T09:28:13.208Z,98592.64
2018-08-06T09:30:41.330Z,98591.58
2018-08-06T09:33:09.618Z,98586.73
2018-08-06T09:35:38.050Z,98589.61
2018-08-06T09:38:06.835Z,98590.13
2018-08-06T09:40:34.994Z,98588.25
2018-08-06T09:43:03.267Z,98584.70
2018-08-06T09:45:31.410Z,98583.07
2018-08-06T09:47:59.534Z,98581.95
2018-08-06T09:50:27.727Z,98580.77
2018-08-06T09:52:55.931Z,98576.98
2018-08-06T09:55:26.262Z,98570.27
2018-08-06T09:57:54.598Z,98562.21
2018-08-06T10:00:28.468Z,98560.03
2018-08-06T10:03:00.827Z,98552.73
2018-08-06T10:05:30.093Z,98552.56
2018-08-06T10:07:58.448Z,98557.56
2018-08-06T10:10:26.511Z,98549.15
2018-08-06T10:12:54.769Z,98542.02
2018-08-06T10:15:23.286Z,98540.33
2018-08-06T10:17:53.056Z,98540.50
2018-08-06T10:20:23.396Z,98539.97
2018-08-06T10:22:51.482Z,98535.10
2018-08-06T10:25:19.603Z,98533.76
2018-08-06T10:27:48.251Z,98529.37
2018-08-06T10:30:19.581Z,98531.94
2018-08-06T10:32:47.804Z,98531.09
2018-08-06T10:35:17.404Z,98527.06
2018-08-06T10:37:47.143Z,98528.41
2018-08-06T10:40:17.586Z,98525.96
2018-08-06T10:42:46.243Z,98520.86
2018-08-06T10:45:16.094Z,98524.89
2018-08-06T10:47:44.300Z,98514.13
2018-08-06T10:50:12.832Z,98507.14
2018-08-06T10:52:41.188Z,98502.88
2018-08-06T10:55:10.184Z,98502.88
2018-08-06T10:57:39.291Z,98503.38
2018-08-06T11:00:11.314Z,98503.08
2018-08-06T11:02:39.457Z,98504.16
2018-08-06T11:05:08.919Z,98498.98
2018-08-06T11:07:37.496Z,98493.84
2018-08-06T11:10:08.124Z,98494.72
2018-08-06T11:12:36.903Z,98489.34
2018-08-06T11:15:07.116Z,98483.59
2018-08-06T11:17:35.311Z,98485.78
2018-08-06T11:20:03.451Z,98483.59
2018-08-06T11:22:31.665Z,98483.59
2018-08-06T11:25:00.008Z,98487.33
2018-08-06T11:27:28.191Z,98488.38
2018-08-06T11:29:56.459Z,98475.47
2018-08-06T11:32:24.623Z,98478.96
2018-08-06T11:34:52.750Z,98475.16
2018-08-06T11:37:20.980Z,98471.67
2018-08-06T11:39:49.127Z,98474.06
2018-08-06T11:42:17.324Z,98466.50
2018-08-06T11:44:45.464Z,98468.37
2018-08-06T11:47:13.635Z,98457.32
2018-08-06T11:49:41.895Z,98460.25
2018-08-06T11:52:09.974Z,98452.45
2018-08-06T11:54:38.224Z,98449.69
2018-08-06T11:57:06.319Z,98448.05
2018-08-06T11:59:34.501Z,98453.66
2018-08-06T12:02:03.000Z,98452.52
2018-08-06T12:04:31.363Z,98446.91
2018-08-06T12:07:00.071Z,98447.67
2018-08-06T12:09:28.200Z,98444.98
2018-08-06T12:11:56.365Z,98437.19
2018-08-06T12:14:24.640Z,98432.82
2018-08-06T12:16:52.951Z,98424.21
2018-08-06T12:19:21.065Z,98423.37
2018-08-06T12:21:49.499Z,98422.56
2018-08-06T12:24:17.693Z,98422.02
2018-08-06T12:26:45.937Z,98423.61
2018-08-06T12:29:14.071Z,98418.23
2018-08-06T12:31:42.663Z,98416.34
2018-08-06T12:34:10.865Z,98408.74
2018-08-06T12:36:39.387Z,98409.31
2018-08-06T12:39:11.425Z,98405.81
2018-08-06T12:41:39.643Z,98410.28
2018-08-06T12:44:09.695Z,98409.44
2018-08-06T12:46:38.040Z,98403.33
2018-08-06T12:49:06.752Z,98397.33
2018-08-06T12:51:35.000Z,98397.33
2018-08-06T12:54:04.414Z,98399.18
2018-08-06T12:56:32.839Z,98392.95
2018-08-06T12:59:00.982Z,98393.05
2018-08-06T13:01:29.142Z,98392.70
2018-08-06T13:03:57.427Z,98381.06
2018-08-06T13:06:25.563Z,98378.14
2018-08-06T13:08:53.700Z,98380.83
2018-08-06T13:11:21.927Z,98379.25
2018-08-06T13:13:50.090Z,98376.80
2018-08-06T13:16:18.697Z,98371.41
2018-08-06T13:18:46.827Z,98362.23
2018-08-06T13:21:15.220Z,98361.14
2018-08-06T13:23:43.401Z,98353.55
2018-08-06T13:26:11.586Z,98352.63
2018-08-06T13:28:39.902Z,98343.12
2018-08-06T13:31:08.012Z,98342.66
2018-08-06T13:33:36.197Z,98343.51
2018-08-06T13:36:04.369Z,98341.86
2018-08-06T13:38:32.512Z,98342.39
2018-08-06T13:41:00.713Z,98334.33
2018-08-06T13:43:28.844Z,98332.75
2018-08-06T13:45:56.980Z,98329.75
2018-08-06T13:48:25.162Z,98325.41
2018-08-06T13:50:53.398Z,98327.55
2018-08-06T13:53:21.538Z,98323.52
2018-08-06T13:55:49.664Z,98317.02
2018-08-06T13:58:17.903Z,98316.71
2018-08-06T14:00:46.023Z,98318.55
2018-08-06T14:03:14.366Z,98307.79
2018-08-06T14:05:42.579Z,98306.44
2018-08-06T14:08:10.810Z,98304.45
2018-08-06T14:10:39.009Z,98310.63
2018-08-06T14:13:07.271Z,98308.98
2018-08-06T14:15:35.734Z,98305.67
2018-08-06T14:18:04.077Z,98301.86
2018-08-06T14:20:32.262Z,98302.44
2018-08-06T14:23:00.355Z,98295.70
2018-08-06T14:25:28.455Z,98295.70
2018-08-06T14:27:56.627Z,98280.33
2018-08-06T14:30:24.821Z,98283.28
2018-08-06T14:32:53.032Z,98280.33
2018-08-06T14:35:21.154Z,98275.21
2018-08-06T14:37:49.866Z,98277.33
2018-08-06T14:40:19.207Z,98275.21
2018-08-06T14:42:47.767Z,98267.98
2018-08-06T14:45:16.259Z,98264.67
2018-08-06T14:47:44.472Z,98268.63
2018-08-06T14:50:14.130Z,98259.94
2018-08-06T14:52:42.299Z,98258.05
2018-08-06T14:55:10.427Z,98251.31
2018-08-06T14:57:39.926Z,98249.09
2018-08-06T15:00:12.499Z,98243.47
2018-08-06T15:02:40.956Z,98247.52
2018-08-06T15:05:09.518Z,98251.55
2018-08-06T15:07:38.011Z,98249.34
2018-08-06T15:10:07.338Z,98245.86
2018-08-06T15:12:35.755Z,98241.27
2018-08-06T15:15:04.256Z,98243.66
2018-08-06T15:17:32.339Z,98240.39
2018-08-06T15:20:00.613Z,98232.00
2018-08-06T15:22:28.785Z,98235.73
2018-08-06T15:24:56.912Z,98234.87
2018-08-06T15:27:25.167Z,98229.48
2018-08-06T15:29:53.831Z,98235.36
2018-08-06T15:32:22.890Z,98230.55
2018-08-06T15:34:52.115Z,98226.20
2018-08-06T15:37:20.316Z,98221.27
2018-08-06T15:39:48.448Z,98221.53
2018-08-06T15:42:16.631Z,98219.92
2018-08-06T15:44:44.907Z,98217.15
2018-08-06T15:47:14.308Z,98223.88
2018-08-06T15:49:42.492Z,98216.84
2018-08-06T15:52:11.011Z,98210.11
2018-08-06T15:54:39.307Z,98214.95
2018-08-06T15:57:07.549Z,98210.11
2018-08-06T15:59:35.811Z,98211.71
2018-08-06T16:02:04.163Z,98203.14
2018-08-06T16:04:32.495Z,98203.14
2018-08-06T16:07:00.832Z,98205.20
2018-08-06T16:09:29.129Z,98201.40
2018-08-06T16:11:57.236Z,98201.89
2018-08-06T16:14:25.696Z,98202.69
2018-08-06T16:16:54.796Z,98206.95
2018-08-06T16:19:23.296Z,98202.37
2018-08-06T16:21:51.913Z,98202.12
2018-08-06T16:24:20.710Z,98203.46
2018-08-06T16:26:49.172Z,98199.20
2018-08-06T16:29:17.372Z,98199.91
2018-08-06T16:31:45.691Z,98191.75
2018-08-06T16:34:15.255Z,98192.47
2018-08-06T16:36:43.351Z,98194.35
2018-08-06T16:39:13.328Z,98184.28
2018-08-06T16:41:41.603Z,98182.56
2018-08-06T16:44:10.292Z,98185.71
2018-08-06T16:46:38.458Z,98178.11
2018-08-06T16:49:07.158Z,98185.08
2018-08-06T16:51:35.546Z,98186.20
2018-08-06T16:54:04.394Z,98184.22
2018-08-06T16:56:32.707Z,98177.22
2018-08-06T16:59:01.024Z,98175.55
2018-08-06T17:01:29.282Z,98181.97
2018-08-06T17:03:57.734Z,98174.69
2018-08-06T17:06:26.053Z,98174.84
2018-08-06T17:08:54.295Z,98176.05
2018-08-06T17:11:22.538Z,98173.19
2018-08-06T17:13:50.819Z,98170.05
2018-08-06T17:16:19.202Z,98174.41
2018-08-06T17:18:47.656Z,98172.83
2018-08-06T17:21:15.924Z,98173.69
2018-08-06T17:23:44.208Z,98169.42
2018-08-06T17:26:12.388Z,98173.69
2018-08-06T17:28:40.916Z,98167.81
2018-08-06T17:31:09.232Z,98171.63
2018-08-06T17:33:37.452Z,98168.12
2018-08-06T17:36:06.903Z,98173.20
2018-08-06T17:38:35.206Z,98170.51
2018-08-06T17:41:03.471Z,98172.34
2018-08-06T17:43:31.733Z,98173.20
2018-08-06T17:45:59.993Z,98177.81
2018-08-06T17:48:28.252Z,98179.70
2018-08-06T17:50:56.570Z,98178.91
2018-08-06T17:53:24.825Z,98179.70
2018-08-06T17:55:53.082Z,98176.78
2018-08-06T17:58:21.777Z,98177.02
2018-08-06T18:00:49.893Z,98175.12
2018-08-06T18:03:18.164Z,98171.86
2018-08-06T18:05:46.622Z,98177.73
2018-08-06T18:08:15.103Z,98179.08
2018-08-06T18:10:43.399Z,98187.16
2018-08-06T18:13:11.574Z,98183.75
2018-08-06T18:15:40.046Z,98181.28
2018-08-06T18:18:08.422Z,98182.41
2018-08-06T18:20:36.833Z,98188.59
2018-08-06T18:23:05.272Z,98185.89
2018-08-06T18:25:34.076Z,98187.47
2018-08-06T18:28:02.465Z,98185.89
2018-08-06T18:30:30.881Z,98188.02
2018-08-06T18:32:59.123Z,98199.05
2018-08-06T18:35:27.272Z,98194.12
2018-08-06T18:37:55.508Z,98188.73
2018-08-06T18:40:23.922Z,98185.41
2018-08-06T18:42:52.187Z,98191.34
2018-08-06T18:45:21.693Z,98184.38
2018-08-06T18:47:51.019Z,98187.64
2018-08-06T18:50:19.846Z,98185.72
2018-08-06T18:52:49.087Z,98181.76
2018-08-06T18:55:17.617Z,98176.19
2018-08-06T18:57:46.103Z,98180.89
2018-08-06T19:00:22.468Z,98184.30
2018-08-06T19:02:50.784Z,98184.00
2018-08-06T19:05:18.909Z,98190.16
2018-08-06T19:07:47.047Z,98188.82
2018-08-06T19:10:15.300Z,98195.78
2018-08-06T19:12:48.886Z,98197.13
2018-08-06T19:15:17.213Z,98206.95
2018-08-06T19:17:50.801Z,98206.64
2018-08-06T19:20:19.612Z,98209.59
2018-08-06T19:22:47.811Z,98214.18
2018-08-06T19:25:21.469Z,98221.01
2018-08-06T19:27:49.611Z,98224.80
2018-08-06T19:30:17.769Z,98221.88
2018-08-06T19:32:46.119Z,98234.00
2018-08-06T19:35:14.600Z,98236.47
2018-08-06T19:37:47.363Z,98239.48
2018-08-06T19:40:15.888Z,98248.68
2018-08-06T19:42:49.526Z,98253.01
2018-08-06T19:45:17.872Z,98255.45
2018-08-06T19:47:46.295Z,98255.22
2018-08-06T19:50:20.086Z,98259.48
2018-08-06T19:52:48.770Z,98263.84
2018-08-06T19:55:22.385Z,98264.73
2018-08-06T19:57:51.023Z,98265.28
2018-08-06T20:00:21.231Z,98261.55
2018-08-06T20:02:49.512Z,98256.70
2018-08-06T20:05:17.783Z,98260.38
2018-08-06T20:07:46.001Z,98263.01
2018-08-06T20:10:15.088Z,98261.42
2018-08-06T20:12:43.467Z,98262.05
2018-08-06T20:15:13.931Z,98257.05
2018-08-06T20:17:42.372Z,98249.59
2018-08-06T20:20:11.406Z,98254.34
2018-08-06T20:22:39.758Z,98254.80
2018-08-06T20:25:14.305Z,98252.09
2018-08-06T20:27:42.519Z,98259.00
2018-08-06T20:30:11.939Z,98254.45
2018-08-06T20:32:40.407Z,98261.91
2018-08-06T20:35:11.072Z,98256.68
2018-08-06T20:37:39.901Z,98265.31
2018-08-06T20:40:09.190Z,98264.77
2018-08-06T20:42:38.642Z,98261.11
2018-08-06T20:45:10.380Z,98259.61
2018-08-06T20:47:42.050Z,98273.35
2018-08-06T20:50:15.210Z,98274.70
2018-08-06T20:52:43.729Z,98281.90
2018-08-06T20:55:12.599Z,98288.09
2018-08-06T20:57:41.303Z,98295.48
2018-08-06T21:00:12.923Z,98295.39
2018-08-06T21:02:41.273Z,98291.83
2018-08-06T21:05:09.623Z,98301.72
2018-08-06T21:07:38.144Z,98303.64
2018-08-06T21:10:07.723Z,98295.64
2018-08-06T21:12:36.076Z,98300.14
2018-08-06T21:15:04.524Z,98303.78
2018-08-06T21:17:32.795Z,98302.69
2018-08-06T21:20:00.983Z,98300.30
2018-08-06T21:22:29.093Z,98297.22
2018-08-06T21:24:57.213Z,98301.36
2018-08-06T21:27:25.455Z,98300.70
2018-08-06T21:29:53.591Z,98305.72
2018-08-06T21:32:21.834Z,98304.44
2018-08-06T21:34:50.055Z,98295.31
2018-08-06T21:37:18.253Z,98299.42
2018-08-06T21:39:46.560Z,98306.48
2018-08-06T21:42:14.959Z,98297.94
2018-08-06T21:44:43.302Z,98305.55
2018-08-06T21:47:11.555Z,98301.59
2018-08-06T21:49:39.831Z,98304.61
2018-08-06T21:52:08.035Z,98297.95
2018-08-06T21:54:36.186Z,98291.27
2018-08-06T21:57:04.495Z,98285.87
2018-08-06T21:59:33.237Z,98286.52
2018-08-06T22:02:01.595Z,98278.42
2018-08-06T22:04:30.209Z,98271.78
2018-08-06T22:06:58.612Z,98274.79
2018-08-06T22:09:26.722Z,98274.08
2018-08-06T22:11:55.015Z,98272.82
2018-08-06T22:14:23.239Z,98263.38
2018-08-06T22:16:52.432Z,98269.90
2018-08-06T22:19:20.745Z,98264.34
2018-08-06T22:21:48.940Z,98255.87
2018-08-06T22:24:17.270Z,98248.70
2018-08-06T22:26:45.998Z,98252.30
2018-08-06T22:29:14.977Z,98244.21
2018-08-06T22:31:43.234Z,98241.25
2018-08-06T22:34:11.625Z,98241.34
2018-08-06T22:36:40.132Z,98239.51
2018-08-06T22:39:10.161Z,98254.67
2018-08-06T22:41:38.384Z,98251.49
2018-08-06T22:44:06.712Z,98240.86
2018-08-06T22:46:35.060Z,98243.55
2018-08-06T22:49:03.435Z,98235.02
2018-08-06T22:51:31.919Z,98237.85
2018-08-06T22:54:00.462Z,98234.70
2018-08-06T22:56:28.813Z,98235.56
2018-08-06T22:58:56.940Z,98235.56
2018-08-06T23:01:25.248Z,98236.77
2018-08-06T23:03:53.915Z,98233.98
2018-08-06T23:06:22.126Z,98231.42
2018-08-06T23:08:50.329Z,98231.11
2018-08-06T23:11:18.755Z,98243.45
2018-08-06T23:13:46.945Z,98236.66
2018-08-06T23:16:15.427Z,98235.69
2018-08-06T23:18:43.809Z,98238.00
2018-08-06T23:21:12.072Z,98240.25
2018-08-06T23:23:40.320Z,98233.43
2018-08-06T23:26:08.596Z,98233.20
2018-08-06T23:28:36.833Z,98232.16
2018-08-06T23:31:05.316Z,98226.20
2018-08-06T23:33:33.944Z,98225.87
2018-08-06T23:36:02.167Z,98225.78
2018-08-06T23:38:30.443Z,98231.33
2018-08-06T23:40:58.898Z,98236.70
2018-08-06T23:43:27.297Z,98230.73
2018-08-06T23:45:55.544Z,98234.07
2018-08-06T23:48:23.763Z,98225.34
2018-08-06T23:50:51.898Z,98224.89
2018-08-06T23:53:20.388Z,98225.51
2018-08-06T23:55:48.718Z,98228.20
2018-08-06T23:58:17.087Z,98231.04
